Time;durP1;ratioP1;P1;durP2;ratioP2;P2;SDS_P1;SDS_P2;PMS_P1;PMS_P2;Temp;Humidity;BMP_temperature;BMP_pressure;BME280_temperature;BME280_humidity;BME280_pressure;Samples;Min_cycle;Max_cycle;Signal;HPM_P1;HPM_P2
2021/01/19 00:02:23;;;;;;;4.50;3.30;;;;;;;-144.78;100.00;59851.00;5011219;28;20226;-72
2021/01/19 00:04:50;;;;;;;11.18;2.38;;;;;;;-144.78;100.00;59851.00;5011681;28;20281;-73
2021/01/19 00:07:16;;;;;;;7.13;3.35;;;;;;;-144.78;100.00;59851.00;5011624;28;20193;-71
2021/01/19 00:09:43;;;;;;;4.00;2.92;;;;;;;-144.78;100.00;59851.00;5011476;28;20242;-71
2021/01/19 00:12:09;;;;;;;4.47;3.03;;;;;;;-144.78;100.00;59851.00;5011558;28;20225;-73
2021/01/19 00:14:35;;;;;;;3.58;2.38;;;;;;;-144.78;100.00;59851.00;5011391;28;20202;-72
2021/01/19 00:17:02;;;;;;;5.78;3.17;;;;;;;-144.78;100.00;59851.00;5011207;28;20218;-72
2021/01/19 00:19:28;;;;;;;6.63;3.22;;;;;;;-144.78;100.00;59851.00;5012000;28;20662;-71
2021/01/19 00:21:55;;;;;;;4.75;2.42;;;;;;;-144.78;100.00;59851.00;5011588;28;20290;-69
2021/01/19 00:24:22;;;;;;;4.63;2.63;;;;;;;-144.78;100.00;59851.00;5011904;28;20211;-70
2021/01/19 00:26:48;;;;;;;6.20;2.75;;;;;;;-144.78;100.00;59851.00;5011610;28;20213;-70
2021/01/19 00:29:15;;;;;;;4.97;3.10;;;;;;;-144.78;100.00;59851.00;5014907;28;20552;-68
2021/01/19 00:31:41;;;;;;;6.05;3.10;;;;;;;-144.78;100.00;59851.00;5015386;28;20305;-71
2021/01/19 00:34:07;;;;;;;3.53;2.58;;;;;;;-144.78;100.00;59851.00;5015779;28;20217;-70
2021/01/19 00:36:33;;;;;;;5.00;2.95;;;;;;;-144.78;100.00;59851.00;5015539;28;20785;-69
2021/01/19 00:39:00;;;;;;;4.00;2.72;;;;;;;-144.78;100.00;59851.00;5015175;28;21853;-69
2021/01/19 00:41:27;;;;;;;5.32;3.50;;;;;;;-144.78;100.00;59851.00;5015601;28;20253;-71
2021/01/19 00:43:53;;;;;;;4.05;2.33;;;;;;;-144.78;100.00;59851.00;5015289;28;21132;-70
2021/01/19 00:46:19;;;;;;;6.00;3.90;;;;;;;-144.78;100.00;59851.00;5015309;28;20226;-69
2021/01/19 00:48:45;;;;;;;5.82;3.30;;;;;;;-144.78;100.00;59851.00;5015547;28;20226;-70
2021/01/19 00:51:12;;;;;;;4.25;2.67;;;;;;;-144.78;100.00;59851.00;5014999;28;20235;-70
2021/01/19 00:53:38;;;;;;;5.10;3.38;;;;;;;-144.78;100.00;59851.00;5015260;28;20233;-70
2021/01/19 00:56:06;;;;;;;5.13;3.00;;;;;;;-144.78;100.00;59851.00;5014995;28;20201;-71
2021/01/19 00:58:32;;;;;;;4.60;2.45;;;;;;;-144.78;100.00;59851.00;5015367;28;20675;-70
2021/01/19 01:00:59;;;;;;;3.63;2.60;;;;;;;-144.78;100.00;59851.00;5015103;28;20244;-71
2021/01/19 01:03:25;;;;;;;6.07;3.17;;;;;;;-144.78;100.00;59851.00;5015234;28;20194;-72
2021/01/19 01:05:51;;;;;;;3.22;2.80;;;;;;;-144.78;100.00;59851.00;5014758;28;20220;-70
2021/01/19 01:08:17;;;;;;;7.00;3.28;;;;;;;-144.78;100.00;59851.00;5015181;28;20198;-71
2021/01/19 01:10:44;;;;;;;4.63;2.92;;;;;;;-144.78;100.00;59851.00;5014924;28;20292;-70
2021/01/19 01:13:11;;;;;;;4.75;3.00;;;;;;;-144.78;100.00;59851.00;5014873;28;20207;-70
2021/01/19 01:15:38;;;;;;;4.18;2.53;;;;;;;-144.78;100.00;59851.00;5014547;28;20201;-71
2021/01/19 01:18:11;;;;;;;6.38;2.80;;;;;;;-144.78;100.00;59851.00;5014782;28;20212;-71
2021/01/19 01:20:37;;;;;;;5.13;2.40;;;;;;;-144.78;100.00;59851.00;5014751;28;20204;-69
2021/01/19 01:23:03;;;;;;;2.70;2.33;;;;;;;-144.78;100.00;59851.00;5014739;28;20215;-70
2021/01/19 01:25:30;;;;;;;4.05;3.35;;;;;;;-144.78;100.00;59851.00;5014549;28;20196;-70
2021/01/19 01:27:56;;;;;;;5.68;3.25;;;;;;;-144.78;100.00;59851.00;5018136;28;20227;-70
2021/01/19 01:30:24;;;;;;;4.60;2.97;;;;;;;-144.78;100.00;59851.00;5026653;28;20219;-71
2021/01/19 01:32:51;;;;;;;3.53;3.00;;;;;;;-144.78;100.00;59851.00;5033071;28;20628;-71
2021/01/19 01:35:19;;;;;;;5.97;2.95;;;;;;;-144.78;100.00;59851.00;5031612;28;20656;-70
2021/01/19 01:37:46;;;;;;;3.70;2.75;;;;;;;-144.78;100.00;59851.00;5029605;28;20277;-70
2021/01/19 01:40:15;;;;;;;8.82;3.20;;;;;;;-144.78;100.00;59851.00;5025785;28;20203;-70
2021/01/19 01:42:42;;;;;;;7.50;3.15;;;;;;;-144.78;100.00;59851.00;5034210;28;20223;-69
2021/01/19 01:45:09;;;;;;;3.45;2.60;;;;;;;-144.78;100.00;59851.00;5034218;28;20941;-70
2021/01/19 01:47:39;;;;;;;3.28;2.78;;;;;;;-144.78;100.00;59851.00;5026602;28;20196;-70
2021/01/19 01:50:06;;;;;;;4.80;3.35;;;;;;;-144.78;100.00;59851.00;5025471;28;20210;-71
2021/01/19 01:52:33;;;;;;;3.97;2.72;;;;;;;-144.78;100.00;59851.00;5018016;28;20259;-69
2021/01/19 01:55:00;;;;;;;5.00;3.08;;;;;;;-144.78;100.00;59851.00;5026119;28;20216;-71
2021/01/19 01:57:26;;;;;;;3.78;2.72;;;;;;;-144.78;100.00;59851.00;5022608;28;20265;-71
2021/01/19 01:59:58;;;;;;;6.32;2.78;;;;;;;-144.78;100.00;59851.00;5021222;28;20288;-71
2021/01/19 02:02:25;;;;;;;4.45;2.45;;;;;;;-144.78;100.00;59851.00;5033448;28;21010;-70
2021/01/19 02:04:52;;;;;;;6.43;3.05;;;;;;;-144.78;100.00;59851.00;5033887;28;20256;-70
2021/01/19 02:07:29;;;;;;;5.45;3.00;;;;;;;-144.78;100.00;59851.00;5025264;28;20236;-71
2021/01/19 02:10:10;;;;;;;2.58;2.15;;;;;;;-144.78;100.00;59851.00;5033625;28;20253;-70
2021/01/19 02:12:46;;;;;;;2.40;1.70;;;;;;;-144.78;100.00;59851.00;5033387;28;20200;-69
2021/01/19 02:15:13;;;;;;;4.72;2.42;;;;;;;-144.78;100.00;59851.00;5024025;28;20199;-70
2021/01/19 02:17:49;;;;;;;2.67;2.10;;;;;;;-144.78;100.00;59851.00;5025877;28;20219;-70
2021/01/19 02:20:58;;;;;;;2.10;2.00;;;;;;;-144.78;100.00;59851.00;5017721;28;20200;-70
2021/01/19 02:23:34;;;;;;;6.68;3.70;;;;;;;-144.78;100.00;59851.00;5018740;28;20260;-70
2021/01/19 02:26:18;;;;;;;3.50;2.92;;;;;;;-144.78;100.00;59851.00;5018606;28;20293;-70
2021/01/19 02:28:50;;;;;;;5.90;2.28;;;;;;;-144.78;100.00;59851.00;5013757;28;20235;-69
2021/01/19 02:31:55;;;;;;;4.20;2.75;;;;;;;-144.78;100.00;59851.00;5013418;28;20700;-70
2021/01/19 02:34:29;;;;;;;4.28;2.22;;;;;;;-144.78;100.00;59851.00;5012568;28;20209;-70
2021/01/19 02:37:02;;;;;;;8.05;3.33;;;;;;;-144.78;100.00;59851.00;5014106;28;20226;-71
2021/01/19 02:39:35;;;;;;;3.42;2.20;;;;;;;-144.78;100.00;59851.00;5013617;28;20200;-70
2021/01/19 02:42:09;;;;;;;5.70;2.83;;;;;;;-144.78;100.00;59851.00;5013887;28;20197;-70
2021/01/19 02:44:39;;;;;;;2.95;2.25;;;;;;;-144.78;100.00;59851.00;5013434;28;20571;-71
2021/01/19 02:47:08;;;;;;;2.22;2.03;;;;;;;-144.78;100.00;59851.00;5013418;28;20255;-70
2021/01/19 02:49:36;;;;;;;4.70;2.65;;;;;;;-144.78;100.00;59851.00;5012902;28;20216;-70
2021/01/19 02:52:03;;;;;;;4.07;2.70;;;;;;;-144.78;100.00;59851.00;5012341;28;20258;-71
2021/01/19 02:54:33;;;;;;;3.17;2.60;;;;;;;-144.78;100.00;59851.00;5013085;28;20211;-71
2021/01/19 02:57:18;;;;;;;3.10;2.78;;;;;;;-144.78;100.00;59851.00;5013271;28;20202;-70
2021/01/19 02:59:58;;;;;;;8.82;2.75;;;;;;;-144.78;100.00;59851.00;5013018;28;20279;-70
2021/01/19 03:02:29;;;;;;;4.35;3.05;;;;;;;-144.78;100.00;59851.00;5013048;28;20535;-69
2021/01/19 03:04:59;;;;;;;3.70;2.60;;;;;;;-144.78;100.00;59851.00;5013490;28;20231;-70
2021/01/19 03:07:28;;;;;;;5.85;2.22;;;;;;;-144.78;100.00;59851.00;5012756;28;20192;-70
2021/01/19 03:09:55;;;;;;;6.00;3.35;;;;;;;-144.78;100.00;59851.00;5013148;28;20693;-71
2021/01/19 03:12:23;;;;;;;5.50;3.17;;;;;;;-144.78;100.00;59851.00;5012980;28;20235;-71
2021/01/19 03:14:49;;;;;;;5.45;2.22;;;;;;;-144.78;100.00;59851.00;5012880;28;20315;-70
2021/01/19 03:17:15;;;;;;;2.55;2.08;;;;;;;-144.78;100.00;59851.00;5013050;28;20583;-71
2021/01/19 03:19:44;;;;;;;5.43;2.33;;;;;;;-144.78;100.00;59851.00;5012206;28;20251;-71
2021/01/19 03:22:11;;;;;;;3.10;2.38;;;;;;;-144.78;100.00;59851.00;5012584;28;20196;-72
2021/01/19 03:24:38;;;;;;;4.30;2.60;;;;;;;-144.78;100.00;59851.00;5012570;28;20202;-70
2021/01/19 03:27:05;;;;;;;6.65;2.35;;;;;;;-144.78;100.00;59851.00;5012637;28;20190;-70
2021/01/19 03:29:31;;;;;;;8.15;2.75;;;;;;;-144.78;100.00;59851.00;5012158;28;20232;-71
2021/01/19 03:31:58;;;;;;;3.85;2.92;;;;;;;-144.78;100.00;59851.00;5012393;28;20192;-71
2021/01/19 03:34:24;;;;;;;4.25;3.25;;;;;;;-144.78;100.00;59851.00;5012401;28;20220;-70
2021/01/19 03:36:50;;;;;;;2.35;2.15;;;;;;;-144.78;100.00;59851.00;5012488;28;20290;-70
2021/01/19 03:39:17;;;;;;;5.43;3.25;;;;;;;-144.78;100.00;59851.00;5012627;28;20292;-69
2021/01/19 03:41:44;;;;;;;4.13;2.67;;;;;;;-144.78;100.00;59851.00;5012273;28;20320;-70
2021/01/19 03:44:10;;;;;;;3.60;2.95;;;;;;;-144.78;100.00;59851.00;5012588;28;20203;-70
2021/01/19 03:46:36;;;;;;;5.07;2.30;;;;;;;-144.78;100.00;59851.00;5012403;28;20287;-70
2021/01/19 03:49:04;;;;;;;7.50;3.40;;;;;;;-144.78;100.00;59851.00;5012654;28;20213;-70
2021/01/19 03:51:30;;;;;;;3.55;2.53;;;;;;;-144.78;100.00;59851.00;5012441;28;20203;-70
2021/01/19 03:53:56;;;;;;;4.15;2.17;;;;;;;-144.78;100.00;59851.00;5011914;28;20199;-69
2021/01/19 03:56:23;;;;;;;3.92;2.42;;;;;;;-144.78;100.00;59851.00;5012514;28;20192;-70
2021/01/19 03:58:50;;;;;;;5.35;3.67;;;;;;;-144.78;100.00;59851.00;5012203;28;20229;-70
2021/01/19 04:01:16;;;;;;;3.83;2.60;;;;;;;-144.78;100.00;59851.00;5012437;28;20209;-69
2021/01/19 04:03:43;;;;;;;4.47;3.40;;;;;;;-144.78;100.00;59851.00;5012323;28;20205;-70
2021/01/19 04:06:10;;;;;;;8.00;3.38;;;;;;;-144.78;100.00;59851.00;5013001;28;20206;-69
2021/01/19 04:08:37;;;;;;;6.20;3.75;;;;;;;-144.78;100.00;59851.00;5012056;28;20243;-70
2021/01/19 04:11:04;;;;;;;6.35;2.92;;;;;;;-144.78;100.00;59851.00;5004395;28;20649;-70
2021/01/19 04:13:31;;;;;;;2.55;2.33;;;;;;;-144.78;100.00;59851.00;5012159;28;20286;-69
2021/01/19 04:15:58;;;;;;;8.02;3.67;;;;;;;-144.78;100.00;59851.00;5012203;28;20289;-70
2021/01/19 04:18:24;;;;;;;5.22;2.75;;;;;;;-144.78;100.00;59851.00;5012443;28;20203;-68
2021/01/19 04:20:51;;;;;;;5.10;3.22;;;;;;;-144.78;100.00;59851.00;5012029;28;20282;-69
2021/01/19 04:23:17;;;;;;;4.03;2.67;;;;;;;-144.78;100.00;59851.00;5011688;28;20219;-71
2021/01/19 04:25:44;;;;;;;2.75;2.42;;;;;;;-144.78;100.00;59851.00;5012293;28;20220;-69
2021/01/19 04:28:11;;;;;;;5.20;4.13;;;;;;;-144.78;100.00;59851.00;5017604;28;20698;-70
2021/01/19 04:30:39;;;;;;;5.35;3.33;;;;;;;-144.78;100.00;59851.00;5016721;28;20287;-70
2021/01/19 04:33:05;;;;;;;6.78;3.95;;;;;;;-144.78;100.00;59851.00;5028347;28;20367;-70
2021/01/19 04:35:31;;;;;;;6.70;4.50;;;;;;;-144.78;100.00;59851.00;5020172;28;20240;-71
2021/01/19 04:37:57;;;;;;;5.90;3.40;;;;;;;-144.78;100.00;59851.00;5020135;28;20236;-69
2021/01/19 04:40:24;;;;;;;5.18;3.00;;;;;;;-144.78;100.00;59851.00;5025158;28;20193;-72
2021/01/19 04:42:50;;;;;;;3.35;2.90;;;;;;;-144.78;100.00;59851.00;5030650;28;20349;-70
2021/01/19 04:45:17;;;;;;;5.05;3.85;;;;;;;-144.78;100.00;59851.00;5031579;28;20282;-71
2021/01/19 04:47:44;;;;;;;8.27;3.92;;;;;;;-144.78;100.00;59851.00;5031235;28;20531;-71
2021/01/19 04:50:12;;;;;;;4.45;3.03;;;;;;;-144.78;100.00;59851.00;5030969;28;20600;-70
2021/01/19 04:52:42;;;;;;;6.68;3.15;;;;;;;-144.78;100.00;59851.00;5023294;28;20236;-71
2021/01/19 04:55:09;;;;;;;6.97;3.53;;;;;;;-144.78;100.00;59851.00;5022958;28;20262;-71
2021/01/19 04:57:37;;;;;;;6.80;3.13;;;;;;;-144.78;100.00;59851.00;5031249;28;20260;-70
2021/01/19 05:00:08;;;;;;;6.40;4.35;;;;;;;-144.78;100.00;59851.00;5029484;28;20287;-71
2021/01/19 05:03:12;;;;;;;4.25;3.30;;;;;;;-144.78;100.00;59851.00;5011561;28;20235;-71
2021/01/19 05:06:00;;;;;;;7.07;2.97;;;;;;;-144.78;100.00;59851.00;5025918;28;20200;-70
2021/01/19 05:09:00;;;;;;;4.07;2.70;;;;;;;-144.78;100.00;59851.00;5025070;28;20202;-70
2021/01/19 05:11:28;;;;;;;3.67;3.38;;;;;;;-144.78;100.00;59851.00;5024017;28;20288;-71
2021/01/19 05:14:02;;;;;;;4.15;2.83;;;;;;;-144.78;100.00;59851.00;5024083;28;20621;-70
2021/01/19 05:16:31;;;;;;;4.38;3.45;;;;;;;-144.78;100.00;59851.00;5034758;28;20203;-70
2021/01/19 05:19:01;;;;;;;6.57;2.72;;;;;;;-144.78;100.00;59851.00;5025905;28;20219;-70
2021/01/19 05:21:27;;;;;;;9.57;3.20;;;;;;;-144.78;100.00;59851.00;5019308;28;20202;-71
2021/01/19 05:23:56;;;;;;;4.07;2.80;;;;;;;-144.78;100.00;59851.00;5032959;28;20248;-71
2021/01/19 05:26:23;;;;;;;5.10;3.42;;;;;;;-144.78;100.00;59851.00;5026365;28;20262;-70
2021/01/19 05:28:51;;;;;;;3.88;3.53;;;;;;;-144.78;100.00;59851.00;5018951;28;20260;-70
2021/01/19 05:31:23;;;;;;;4.55;3.17;;;;;;;-144.78;100.00;59851.00;5014026;28;20205;-70
2021/01/19 05:34:08;;;;;;;6.00;3.30;;;;;;;-144.78;100.00;59851.00;5014382;28;20279;-70
2021/01/19 05:36:46;;;;;;;5.13;3.10;;;;;;;-144.78;100.00;59851.00;5008209;28;20642;-71
2021/01/19 05:39:15;;;;;;;4.97;2.92;;;;;;;-144.78;100.00;59851.00;5014336;28;20652;-69
2021/01/19 05:41:43;;;;;;;7.30;3.83;;;;;;;-144.78;100.00;59851.00;5014235;28;20666;-71
2021/01/19 05:44:11;;;;;;;4.97;3.03;;;;;;;-144.78;100.00;59851.00;5014162;28;20274;-70
2021/01/19 05:46:42;;;;;;;6.65;3.47;;;;;;;-144.78;100.00;59851.00;5014437;28;20236;-72
2021/01/19 05:49:14;;;;;;;12.45;3.35;;;;;;;-144.78;100.00;59851.00;5014391;28;20198;-71
2021/01/19 05:51:43;;;;;;;13.43;3.55;;;;;;;-144.78;100.00;59851.00;5014387;28;20197;-70
2021/01/19 05:54:11;;;;;;;4.72;2.78;;;;;;;-144.78;100.00;59851.00;5013506;28;20230;-69
2021/01/19 05:56:38;;;;;;;5.35;3.85;;;;;;;-144.78;100.00;59851.00;5013906;28;20235;-71
2021/01/19 05:59:05;;;;;;;5.43;3.13;;;;;;;-144.78;100.00;59851.00;5013942;28;20672;-70
2021/01/19 06:01:32;;;;;;;6.68;3.40;;;;;;;-144.78;100.00;59851.00;5013402;28;20206;-71
2021/01/19 06:04:00;;;;;;;5.18;4.20;;;;;;;-144.78;100.00;59851.00;5014000;28;20619;-73
2021/01/19 06:06:29;;;;;;;5.18;3.47;;;;;;;-144.78;100.00;59851.00;5013576;28;20635;-71
2021/01/19 06:09:00;;;;;;;5.28;3.13;;;;;;;-144.78;100.00;59851.00;5013600;28;20692;-71
2021/01/19 06:11:27;;;;;;;5.65;3.47;;;;;;;-144.78;100.00;59851.00;5013617;28;20528;-71
2021/01/19 06:13:54;;;;;;;4.20;2.60;;;;;;;-144.78;100.00;59851.00;5013617;28;20283;-71
2021/01/19 06:16:22;;;;;;;5.38;3.67;;;;;;;-144.78;100.00;59851.00;5013506;28;20324;-71
2021/01/19 06:18:48;;;;;;;6.13;3.55;;;;;;;-144.78;100.00;59851.00;5013766;28;20261;-72
2021/01/19 06:21:27;;;;;;;5.90;3.78;;;;;;;-144.78;100.00;59851.00;5013449;28;20217;-71
2021/01/19 06:23:53;;;;;;;8.75;4.30;;;;;;;-144.78;100.00;59851.00;5013570;28;20189;-71
2021/01/19 06:26:19;;;;;;;6.63;3.60;;;;;;;-144.78;100.00;59851.00;5012369;28;20217;-71
2021/01/19 06:28:49;;;;;;;5.38;3.45;;;;;;;-144.78;100.00;59851.00;5023694;28;20262;-70
2021/01/19 06:31:19;;;;;;;6.28;4.05;;;;;;;-144.78;100.00;59851.00;5033362;28;20205;-71
2021/01/19 06:33:48;;;;;;;4.47;3.00;;;;;;;-144.78;100.00;59851.00;5033731;28;20209;-70
2021/01/19 06:36:16;;;;;;;7.25;3.90;;;;;;;-144.78;100.00;59851.00;5033526;28;20230;-70
2021/01/19 06:38:45;;;;;;;5.38;3.08;;;;;;;-144.78;100.00;59851.00;5033027;28;20346;-69
2021/01/19 06:41:16;;;;;;;5.53;3.65;;;;;;;-144.78;100.00;59851.00;5033166;28;20194;-71
2021/01/19 06:43:45;;;;;;;12.45;3.35;;;;;;;-144.78;100.00;59851.00;5013126;28;20195;-70
2021/01/19 06:46:13;;;;;;;6.85;3.30;;;;;;;-144.78;100.00;59851.00;5012886;28;20290;-69
2021/01/19 06:48:42;;;;;;;3.80;2.75;;;;;;;-144.78;100.00;59851.00;5012841;28;20198;-70
2021/01/19 06:51:11;;;;;;;4.72;3.13;;;;;;;-144.78;100.00;59851.00;5013034;28;20299;-71
2021/01/19 06:53:45;;;;;;;5.40;3.90;;;;;;;-144.78;100.00;59851.00;5024719;28;20665;-70
2021/01/19 06:56:12;;;;;;;4.20;3.45;;;;;;;-144.78;100.00;59851.00;5031855;28;20289;-69
2021/01/19 06:58:54;;;;;;;6.10;2.90;;;;;;;-144.78;100.00;59851.00;5020904;28;20219;-70
2021/01/19 07:01:21;;;;;;;3.67;2.78;;;;;;;-144.78;100.00;59851.00;5025208;28;20279;-69
2021/01/19 07:03:49;;;;;;;4.63;3.38;;;;;;;-144.78;100.00;59851.00;5021654;28;20223;-70
2021/01/19 07:06:16;;;;;;;6.07;3.30;;;;;;;-144.78;100.00;59851.00;5032693;28;20646;-72
2021/01/19 07:09:27;;;;;;;6.18;3.20;;;;;;;-144.78;100.00;59851.00;5032877;28;20299;-70
2021/01/19 07:12:03;;;;;;;3.05;2.60;;;;;;;-144.78;100.00;59851.00;5032235;28;20207;-69
2021/01/19 07:14:43;;;;;;;4.75;2.92;;;;;;;-144.78;100.00;59851.00;5032633;28;20187;-71
2021/01/19 07:17:17;;;;;;;9.23;3.08;;;;;;;-144.78;100.00;59851.00;5032091;28;20209;-72
2021/01/19 07:19:48;;;;;;;4.82;3.50;;;;;;;-144.78;100.00;59851.00;5032843;28;20984;-71
2021/01/19 07:22:54;;;;;;;5.78;3.42;;;;;;;-144.78;100.00;59851.00;5032617;28;20647;-72
2021/01/19 07:25:21;;;;;;;4.70;3.53;;;;;;;-144.78;100.00;59851.00;4971669;28;20198;-70
2021/01/19 07:27:47;;;;;;;3.00;2.70;;;;;;;-144.78;100.00;59851.00;5021487;28;20203;-69
2021/01/19 07:30:16;;;;;;;4.18;3.03;;;;;;;-144.78;100.00;59851.00;5032889;28;20250;-69
2021/01/19 07:32:45;;;;;;;3.97;2.97;;;;;;;-144.78;100.00;59851.00;5031990;28;20193;-69
2021/01/19 07:35:14;;;;;;;4.30;3.05;;;;;;;-144.78;100.00;59851.00;5032337;28;20713;-69
2021/01/19 07:37:40;;;;;;;4.22;3.83;;;;;;;-144.78;100.00;59851.00;5032170;28;20199;-69
2021/01/19 07:40:17;;;;;;;6.28;5.00;;;;;;;-144.78;100.00;59851.00;5031185;28;20222;-70
2021/01/19 07:42:45;;;;;;;5.45;3.80;;;;;;;-144.78;100.00;59851.00;5031404;28;20202;-71
2021/01/19 07:45:11;;;;;;;7.03;4.07;;;;;;;-144.78;100.00;59851.00;5031696;28;20294;-68
2021/01/19 07:47:39;;;;;;;4.18;2.55;;;;;;;-144.78;100.00;59851.00;5023195;28;20653;-69
2021/01/19 07:50:10;;;;;;;4.65;2.85;;;;;;;-144.78;100.00;59851.00;5032175;28;20205;-68
2021/01/19 07:52:38;;;;;;;4.65;3.10;;;;;;;-144.78;100.00;59851.00;5023832;28;20696;-69
2021/01/19 07:55:16;;;;;;;4.97;3.03;;;;;;;-144.78;100.00;59851.00;5031356;28;20243;-69
2021/01/19 07:57:44;;;;;;;7.13;2.80;;;;;;;-144.78;100.00;59851.00;5016675;28;20233;-69
2021/01/19 08:00:12;;;;;;;4.70;3.75;;;;;;;-144.78;100.00;59851.00;5025356;28;20210;-69
2021/01/19 08:02:38;;;;;;;9.38;4.15;;;;;;;-144.78;100.00;59851.00;5025978;28;20273;-70
2021/01/19 08:05:06;;;;;;;5.20;3.50;;;;;;;-144.78;100.00;59851.00;5017986;28;20681;-67
2021/01/19 08:07:42;;;;;;;3.65;2.47;;;;;;;-144.78;100.00;59851.00;5026840;28;20187;-68
2021/01/19 08:10:19;;;;;;;5.93;2.97;;;;;;;-144.78;100.00;59851.00;5013762;28;20322;-69
2021/01/19 08:12:48;;;;;;;6.95;2.97;;;;;;;-144.78;100.00;59851.00;5022853;28;20288;-68
2021/01/19 08:15:22;;;;;;;8.05;2.70;;;;;;;-144.78;100.00;59851.00;5022885;28;20242;-69
2021/01/19 08:17:53;;;;;;;6.35;3.47;;;;;;;-144.78;100.00;59851.00;5025348;28;20218;-68
2021/01/19 08:20:30;;;;;;;8.05;3.28;;;;;;;-144.78;100.00;59851.00;5031885;28;20287;-67
2021/01/19 08:23:09;;;;;;;5.97;3.38;;;;;;;-144.78;100.00;59851.00;5031569;28;20204;-68
2021/01/19 08:25:35;;;;;;;5.05;2.70;;;;;;;-144.78;100.00;59851.00;5020025;28;20208;-68
2021/01/19 08:28:03;;;;;;;5.03;3.75;;;;;;;-144.78;100.00;59851.00;5013518;28;20709;-67
2021/01/19 08:30:31;;;;;;;6.88;3.22;;;;;;;-144.78;100.00;59851.00;5003735;28;20597;-70
2021/01/19 08:32:59;;;;;;;3.38;2.50;;;;;;;-144.78;100.00;59851.00;5012060;28;20655;-68
2021/01/19 08:35:27;;;;;;;5.05;3.25;;;;;;;-144.78;100.00;59851.00;5011543;28;20670;-68
2021/01/19 08:37:54;;;;;;;3.53;2.45;;;;;;;-144.78;100.00;59851.00;5011685;28;20263;-69
2021/01/19 08:40:25;;;;;;;4.78;2.70;;;;;;;-144.78;100.00;59851.00;5011471;28;20206;-68
2021/01/19 08:42:52;;;;;;;10.52;3.33;;;;;;;-144.78;100.00;59851.00;5011876;28;20662;-69
2021/01/19 08:45:25;;;;;;;5.38;2.58;;;;;;;-144.78;100.00;59851.00;5011359;28;20210;-69
2021/01/19 08:47:53;;;;;;;3.78;2.75;;;;;;;-144.78;100.00;59851.00;5004510;28;20228;-67
2021/01/19 08:50:20;;;;;;;6.15;3.15;;;;;;;-144.78;100.00;59851.00;5015462;28;20202;-68
2021/01/19 08:52:46;;;;;;;6.90;2.75;;;;;;;-144.78;100.00;59851.00;5015345;28;20215;-68
2021/01/19 08:55:21;;;;;;;5.90;3.15;;;;;;;-144.78;100.00;59851.00;5015487;28;20200;-69
2021/01/19 08:57:51;;;;;;;4.63;2.83;;;;;;;-144.78;100.00;59851.00;5015359;28;20208;-68
2021/01/19 09:00:26;;;;;;;6.85;3.60;;;;;;;-144.78;100.00;59851.00;5015213;28;20205;-67
2021/01/19 09:02:53;;;;;;;4.15;2.80;;;;;;;-144.78;100.00;59851.00;5014691;28;20288;-68
2021/01/19 09:05:27;;;;;;;4.15;2.90;;;;;;;-144.78;100.00;59851.00;5015020;28;20203;-69
2021/01/19 09:07:54;;;;;;;4.63;2.45;;;;;;;-144.78;100.00;59851.00;5014968;28;20189;-69
2021/01/19 09:10:21;;;;;;;8.60;3.38;;;;;;;-144.78;100.00;59851.00;5015505;28;20953;-70
2021/01/19 09:12:48;;;;;;;3.63;2.35;;;;;;;-144.78;100.00;59851.00;5014520;28;20218;-70
2021/01/19 09:15:16;;;;;;;3.78;2.53;;;;;;;-144.78;100.00;59851.00;5006893;28;20260;-70
2021/01/19 09:17:51;;;;;;;4.68;2.45;;;;;;;-144.78;100.00;59851.00;5015064;28;20215;-69
2021/01/19 09:20:18;;;;;;;4.03;2.50;;;;;;;-144.78;100.00;59851.00;5014727;28;20224;-71
2021/01/19 09:22:44;;;;;;;9.32;3.30;;;;;;;-144.78;100.00;59851.00;5014252;28;20285;-72
2021/01/19 09:25:12;;;;;;;6.47;3.13;;;;;;;-144.78;100.00;59851.00;5013927;28;20224;-68
2021/01/19 09:27:39;;;;;;;4.40;2.53;;;;;;;-144.78;100.00;59851.00;5014671;28;20307;-72
2021/01/19 09:30:10;;;;;;;5.03;2.45;;;;;;;-144.78;100.00;59851.00;5014251;28;20210;-68
2021/01/19 09:32:39;;;;;;;8.15;3.30;;;;;;;-144.78;100.00;59851.00;5007618;28;20233;-70
2021/01/19 09:35:09;;;;;;;4.68;3.08;;;;;;;-144.78;100.00;59851.00;5013863;28;20232;-70
2021/01/19 09:37:35;;;;;;;4.25;2.80;;;;;;;-144.78;100.00;59851.00;5014337;28;20205;-69
2021/01/19 09:40:03;;;;;;;6.13;3.28;;;;;;;-144.78;100.00;59851.00;5013869;28;20609;-70
2021/01/19 09:42:30;;;;;;;5.00;2.83;;;;;;;-144.78;100.00;59851.00;5013922;28;20216;-67
2021/01/19 09:44:57;;;;;;;5.38;2.67;;;;;;;-144.78;100.00;59851.00;5014251;28;20301;-71
2021/01/19 09:47:25;;;;;;;3.50;3.20;;;;;;;-144.78;100.00;59851.00;5014077;28;20254;-71
2021/01/19 09:49:54;;;;;;;6.05;5.20;;;;;;;-144.78;100.00;59851.00;5014337;28;20201;-69
2021/01/19 09:52:29;;;;;;;7.80;3.13;;;;;;;-144.78;100.00;59851.00;5014209;28;20224;-70
2021/01/19 09:55:06;;;;;;;8.55;3.40;;;;;;;-144.78;100.00;59851.00;5013588;28;20232;-71
2021/01/19 09:57:33;;;;;;;9.15;3.63;;;;;;;-144.78;100.00;59851.00;5013950;28;20542;-70
2021/01/19 09:59:59;;;;;;;5.10;3.40;;;;;;;-144.78;100.00;59851.00;5012968;28;20683;-70
2021/01/19 10:02:29;;;;;;;5.47;3.08;;;;;;;-144.78;100.00;59851.00;5013009;28;20463;-70
2021/01/19 10:05:00;;;;;;;4.07;3.10;;;;;;;-144.78;100.00;59851.00;5013768;28;20201;-68
2021/01/19 10:07:29;;;;;;;4.70;3.33;;;;;;;-144.78;100.00;59851.00;5013692;28;20223;-68
2021/01/19 10:10:10;;;;;;;3.97;2.92;;;;;;;-144.78;100.00;59851.00;5013403;28;20279;-71
2021/01/19 10:12:36;;;;;;;7.55;2.60;;;;;;;-144.78;100.00;59851.00;5013165;28;20216;-70
2021/01/19 10:15:05;;;;;;;10.20;3.55;;;;;;;-144.78;100.00;59851.00;5013655;28;20639;-70
2021/01/19 10:17:32;;;;;;;4.15;3.00;;;;;;;-144.78;100.00;59851.00;5013508;28;20205;-70
2021/01/19 10:20:09;;;;;;;5.20;4.20;;;;;;;-144.78;100.00;59851.00;5013407;28;20877;-68
2021/01/19 10:22:39;;;;;;;4.70;2.78;;;;;;;-144.78;100.00;59851.00;5013512;28;20204;-71
2021/01/19 10:25:08;;;;;;;7.55;3.95;;;;;;;-144.78;100.00;59851.00;5013127;28;20275;-69
2021/01/19 10:27:40;;;;;;;4.75;3.22;;;;;;;-144.78;100.00;59851.00;5013024;28;20203;-69
2021/01/19 10:30:08;;;;;;;4.13;3.63;;;;;;;-144.78;100.00;59851.00;5033352;28;20288;-69
2021/01/19 10:32:48;;;;;;;5.68;3.60;;;;;;;-144.78;100.00;59851.00;5025114;28;21011;-70
2021/01/19 10:35:25;;;;;;;5.63;3.40;;;;;;;-144.78;100.00;59851.00;5024917;28;20581;-71
2021/01/19 10:37:53;;;;;;;2.95;1.85;;;;;;;-144.78;100.00;59851.00;5024866;28;20222;-69
2021/01/19 10:40:20;;;;;;;5.38;3.38;;;;;;;-144.78;100.00;59851.00;5032685;28;20621;-70
2021/01/19 10:42:47;;;;;;;4.53;2.83;;;;;;;-144.78;100.00;59851.00;5028056;28;20282;-70
2021/01/19 10:45:24;;;;;;;3.20;2.85;;;;;;;-144.78;100.00;59851.00;5028218;28;20281;-70
2021/01/19 10:47:50;;;;;;;6.75;4.65;;;;;;;-144.78;100.00;59851.00;5022660;28;20227;-71
2021/01/19 10:50:19;;;;;;;6.57;3.65;;;;;;;-144.78;100.00;59851.00;5032934;28;20230;-68
2021/01/19 10:52:54;;;;;;;13.45;3.72;;;;;;;-144.78;100.00;59851.00;5023855;28;20205;-69
2021/01/19 10:55:21;;;;;;;8.75;4.00;;;;;;;-144.78;100.00;59851.00;5018545;28;20209;-70
2021/01/19 10:57:48;;;;;;;8.77;3.47;;;;;;;-144.78;100.00;59851.00;5032498;28;20215;-68
2021/01/19 11:00:16;;;;;;;6.10;3.50;;;;;;;-144.78;100.00;59851.00;5021597;28;20994;-70
2021/01/19 11:02:42;;;;;;;6.70;3.22;;;;;;;-144.78;100.00;59851.00;5028831;28;20261;-69
2021/01/19 11:05:10;;;;;;;10.35;4.13;;;;;;;-144.78;100.00;59851.00;5024548;28;20204;-70
2021/01/19 11:07:37;;;;;;;5.47;3.63;;;;;;;-144.78;100.00;59851.00;5027459;28;20204;-69
2021/01/19 11:10:05;;;;;;;8.02;4.38;;;;;;;-144.78;100.00;59851.00;5030105;28;20644;-69
2021/01/19 11:12:31;;;;;;;9.38;3.90;;;;;;;-144.78;100.00;59851.00;5025245;28;20208;-68
2021/01/19 11:14:57;;;;;;;6.10;2.92;;;;;;;-144.78;100.00;59851.00;5029620;28;20209;-69
2021/01/19 11:17:25;;;;;;;5.90;3.00;;;;;;;-144.78;100.00;59851.00;5027798;28;20662;-69
2021/01/19 11:19:52;;;;;;;5.10;4.03;;;;;;;-144.78;100.00;59851.00;5031509;28;20228;-70
2021/01/19 11:22:18;;;;;;;4.07;3.30;;;;;;;-144.78;100.00;59851.00;5024238;28;20199;-69